Charlton — S6HE4 — position and weather

sailwx.info

Track history (hours):
 
Tides and Currents Weather Stations Pressure Air Temp Water Temp Dewpoint Dewpoint Depression Visibility Wind Speed Wind Dir Waves Ship Positions

Charlton

Last reported at 2018-Feb-03 11:40 UTC. Time now 2018-Feb-26 03:18 UTC.
Position N 01°13' E 103°54'.
Warning: this ship's position is 22 days out of date.

Length 120 m; draft 6.1 m.

Type: Ship (hazmat cat A). MMSI: 565321000.

Date/timePositionNaut miles runAvg speedWind from/ knotsBaromVisibWave heightAir tempDewpointWater temp
2018-Feb-03 11:40N 01°13' E 103°54'315.9
2018-Feb-03 11:29N 01°11' E 103°52'816.0
2018-Feb-03 10:59N 01°07' E 103°45'714.9
2018-Feb-03 10:30N 01°03' E 103°39'713.1
2018-Feb-03 09:59N 01°07' E 103°33'510.2
2018-Feb-03 09:30N 01°11' E 103°36'4 7.8
2018-Feb-03 09:01N 01°13' E 103°39'0 0.2
2018-Feb-03 08:22N 01°13' E 103°39'0 0.0
2018-Feb-03 07:52N 01°13' E 103°39'0 0.0
2018-Feb-03 06:22N 01°13' E 103°39'0 0.1
2018-Feb-03 05:55N 01°13' E 103°39'0 0.0
2018-Feb-03 05:28N 01°13' E 103°39'0 0.0
2018-Feb-03 04:58N 01°13' E 103°39'0 0.1
2018-Feb-03 03:52N 01°13' E 103°39'0 0.2
2018-Feb-03 03:28N 01°13' E 103°39'0 0.0
2018-Feb-03 01:55N 01°13' E 103°39'0 0.1
2018-Feb-03 01:28N 01°13' E 103°39'0 0.1
2018-Feb-03 00:58N 01°13' E 103°39'0 0.0
2018-Feb-03 00:22N 01°13' E 103°39'0 0.0
2018-Feb-02 23:52N 01°13' E 103°39'0 0.0
2018-Feb-02 23:22N 01°13' E 103°39'0 0.0
2018-Feb-02 22:58N 01°13' E 103°39'0 0.0
2018-Feb-02 22:19N 01°13' E 103°39'0 0.0
2018-Feb-02 21:58N 01°13' E 103°39'0 0.0
2018-Feb-02 21:28N 01°13' E 103°39'0 0.0
2018-Feb-02 20:58N 01°13' E 103°39'0 0.0
2018-Feb-02 20:31N 01°13' E 103°39'0 0.0
2018-Feb-02 19:58N 01°13' E 103°39'0 0.0
2018-Feb-02 18:58N 01°13' E 103°39'0 0.1
2018-Feb-02 18:16N 01°13' E 103°39'0 0.2
2018-Feb-02 17:52N 01°13' E 103°39'0 0.0
2018-Feb-02 17:28N 01°13' E 103°39'0 0.0
2018-Feb-02 16:58N 01°13' E 103°39'0 0.0
2018-Feb-02 16:28N 01°13' E 103°39'0 0.0
2018-Feb-02 15:28N 01°13' E 103°39'0 0.1
2018-Feb-02 14:28N 01°14' E 103°39'0 0.0
2018-Feb-02 13:55N 01°13' E 103°39'0 0.0
2018-Feb-02 13:28N 01°13' E 103°39'0 0.0
2018-Feb-02 12:55N 01°13' E 103°39'0 0.0
2018-Feb-02 12:25N 01°13' E 103°39'0 0.2
2018-Feb-02 12:01N 01°13' E 103°39'0 0.0
2018-Feb-02 11:31N 01°13' E 103°39'0 0.1
2018-Feb-02 10:55N 01°13' E 103°39'0 0.0
2018-Feb-02 10:28N 01°13' E 103°39'0 0.0
2018-Feb-02 09:52N 01°13' E 103°39'0 0.0
2018-Feb-02 09:31N 01°13' E 103°39'0 0.0
2018-Feb-02 08:52N 01°13' E 103°39'0 0.2
2018-Feb-02 08:28N 01°13' E 103°39'0 0.0
2018-Feb-02 07:52N 01°13' E 103°39'0 1.3
2018-Feb-02 07:30N 01°13' E 103°39'3 6.0
2018-Feb-02 07:00N 01°13' E 103°36'2 3.7
2018-Feb-02 06:30N 01°11' E 103°35'3 4.8
2018-Feb-02 05:59N 01°09' E 103°33'3 5.9
2018-Feb-02 05:30N 01°09' E 103°30'3 6.6
2018-Feb-02 04:59N 01°10' E 103°27'  
2018-Jan-30 00:30N 01°13' E 103°28'713.7
2018-Jan-30 00:00N 01°11' E 103°34'2 4.1
2018-Jan-29 23:31N 01°09' E 103°36'0 0.2
2018-Jan-29 23:00N 01°09' E 103°36'0 0.0
2018-Jan-29 17:23N 01°09' E 103°36'0 0.1
2018-Jan-29 16:32N 01°09' E 103°36'0 0.0
2018-Jan-29 07:30N 01°10' E 103°36'0 0.2
2018-Jan-29 06:59N 01°10' E 103°36'1 1.1
2018-Jan-29 06:30N 01°10' E 103°36'0 0.1
2018-Jan-29 05:30N 01°10' E 103°36'0 0.0
2018-Jan-29 04:51N 01°10' E 103°36'0 0.0
2018-Jan-29 04:17N 01°10' E 103°36'0 0.0
2018-Jan-29 03:47N 01°10' E 103°36'0 0.0
2018-Jan-29 03:29N 01°10' E 103°36'0 0.1
2018-Jan-29 02:59N 01°10' E 103°36'0 0.1
2018-Jan-29 02:29N 01°10' E 103°36'0 0.0
2018-Jan-29 01:59N 01°10' E 103°36'0 0.0
2018-Jan-29 01:14N 01°10' E 103°36'0 0.0
2018-Jan-29 00:53N 01°10' E 103°36'0 0.1
2018-Jan-29 00:20N 01°10' E 103°36'0 0.2
2018-Jan-28 23:56N 01°10' E 103°36'0 0.0
2018-Jan-28 23:20N 01°10' E 103°36'0 0.0
2018-Jan-28 22:27N 01°10' E 103°36'0 0.1
2018-Jan-28 21:50N 01°10' E 103°36'0 0.2
2018-Jan-28 21:29N 01°10' E 103°36'0 0.1
2018-Jan-28 20:38N 01°10' E 103°36'0 0.0
2018-Jan-28 20:14N 01°10' E 103°36'0 0.0
2018-Jan-28 19:56N 01°10' E 103°36'0 0.1
2018-Jan-28 19:29N 01°10' E 103°36'0 0.1
2018-Jan-28 18:56N 01°10' E 103°36'0 0.1
2018-Jan-28 18:26N 01°10' E 103°36'0 0.1
2018-Jan-28 17:44N 01°10' E 103°36'0 0.0
2018-Jan-28 17:25N 01°10' E 103°36'1 0.1
2018-Jan-28 11:29N 01°09' E 103°36'1 0.8
2018-Jan-28 10:47N 01°10' E 103°36'1 1.3
2018-Jan-28 10:18N 01°10' E 103°36'3 8.8
2018-Jan-28 09:57N 01°10' E 103°39'711.9
2018-Jan-28 09:22N 01°10' E 103°46'514.2
2018-Jan-28 09:00N 01°12' E 103°51'714.1
2018-Jan-28 08:29N 01°15' E 103°58'  
Track history (hours):
 
Tides and Currents Weather Stations Pressure Air Temp Water Temp Dewpoint Dewpoint Depression Visibility Wind Speed Wind Dir Waves Ship Positions

Charlton

Last reported at 2018-Feb-03 11:40 UTC. Time now 2018-Feb-26 03:18 UTC.
Position N 01°13' E 103°54'.
Warning: this ship's position is 22 days out of date.

Length 120 m; draft 6.1 m.

Type: Ship (hazmat cat A). MMSI: 565321000.

Date/timePositionNaut miles runAvg speedWind from/ knotsBaromVisibWave heightAir tempDewpointWater temp
2018-Feb-03 11:40N 01°13' E 103°54'315.9
2018-Feb-03 11:29N 01°11' E 103°52'816.0
2018-Feb-03 10:59N 01°07' E 103°45'714.9
2018-Feb-03 10:30N 01°03' E 103°39'713.1
2018-Feb-03 09:59N 01°07' E 103°33'510.2
2018-Feb-03 09:30N 01°11' E 103°36'4 7.8
2018-Feb-03 09:01N 01°13' E 103°39'0 0.2
2018-Feb-03 08:22N 01°13' E 103°39'0 0.0
2018-Feb-03 07:52N 01°13' E 103°39'0 0.0
2018-Feb-03 06:22N 01°13' E 103°39'0 0.1
2018-Feb-03 05:55N 01°13' E 103°39'0 0.0
2018-Feb-03 05:28N 01°13' E 103°39'0 0.0
2018-Feb-03 04:58N 01°13' E 103°39'0 0.1
2018-Feb-03 03:52N 01°13' E 103°39'0 0.2
2018-Feb-03 03:28N 01°13' E 103°39'0 0.0
2018-Feb-03 01:55N 01°13' E 103°39'0 0.1
2018-Feb-03 01:28N 01°13' E 103°39'0 0.1
2018-Feb-03 00:58N 01°13' E 103°39'0 0.0
2018-Feb-03 00:22N 01°13' E 103°39'0 0.0
2018-Feb-02 23:52N 01°13' E 103°39'0 0.0
2018-Feb-02 23:22N 01°13' E 103°39'0 0.0
2018-Feb-02 22:58N 01°13' E 103°39'0 0.0
2018-Feb-02 22:19N 01°13' E 103°39'0 0.0
2018-Feb-02 21:58N 01°13' E 103°39'0 0.0
2018-Feb-02 21:28N 01°13' E 103°39'0 0.0
2018-Feb-02 20:58N 01°13' E 103°39'0 0.0
2018-Feb-02 20:31N 01°13' E 103°39'0 0.0
2018-Feb-02 19:58N 01°13' E 103°39'0 0.0
2018-Feb-02 18:58N 01°13' E 103°39'0 0.1
2018-Feb-02 18:16N 01°13' E 103°39'0 0.2
2018-Feb-02 17:52N 01°13' E 103°39'0 0.0
2018-Feb-02 17:28N 01°13' E 103°39'0 0.0
2018-Feb-02 16:58N 01°13' E 103°39'0 0.0
2018-Feb-02 16:28N 01°13' E 103°39'0 0.0
2018-Feb-02 15:28N 01°13' E 103°39'0 0.1
2018-Feb-02 14:28N 01°14' E 103°39'0 0.0
2018-Feb-02 13:55N 01°13' E 103°39'0 0.0
2018-Feb-02 13:28N 01°13' E 103°39'0 0.0
2018-Feb-02 12:55N 01°13' E 103°39'0 0.0
2018-Feb-02 12:25N 01°13' E 103°39'0 0.2
2018-Feb-02 12:01N 01°13' E 103°39'0 0.0
2018-Feb-02 11:31N 01°13' E 103°39'0 0.1
2018-Feb-02 10:55N 01°13' E 103°39'0 0.0
2018-Feb-02 10:28N 01°13' E 103°39'0 0.0
2018-Feb-02 09:52N 01°13' E 103°39'0 0.0
2018-Feb-02 09:31N 01°13' E 103°39'0 0.0
2018-Feb-02 08:52N 01°13' E 103°39'0 0.2
2018-Feb-02 08:28N 01°13' E 103°39'0 0.0
2018-Feb-02 07:52N 01°13' E 103°39'0 1.3
2018-Feb-02 07:30N 01°13' E 103°39'3 6.0
2018-Feb-02 07:00N 01°13' E 103°36'2 3.7
2018-Feb-02 06:30N 01°11' E 103°35'3 4.8
2018-Feb-02 05:59N 01°09' E 103°33'3 5.9
2018-Feb-02 05:30N 01°09' E 103°30'3 6.6
2018-Feb-02 04:59N 01°10' E 103°27'  
2018-Jan-30 00:30N 01°13' E 103°28'713.7
2018-Jan-30 00:00N 01°11' E 103°34'2 4.1
2018-Jan-29 23:31N 01°09' E 103°36'0 0.2
2018-Jan-29 23:00N 01°09' E 103°36'0 0.0
2018-Jan-29 17:23N 01°09' E 103°36'0 0.1
2018-Jan-29 16:32N 01°09' E 103°36'0 0.0
2018-Jan-29 07:30N 01°10' E 103°36'0 0.2
2018-Jan-29 06:59N 01°10' E 103°36'1 1.1
2018-Jan-29 06:30N 01°10' E 103°36'0 0.1
2018-Jan-29 05:30N 01°10' E 103°36'0 0.0
2018-Jan-29 04:51N 01°10' E 103°36'0 0.0
2018-Jan-29 04:17N 01°10' E 103°36'0 0.0
2018-Jan-29 03:47N 01°10' E 103°36'0 0.0
2018-Jan-29 03:29N 01°10' E 103°36'0 0.1
2018-Jan-29 02:59N 01°10' E 103°36'0 0.1
2018-Jan-29 02:29N 01°10' E 103°36'0 0.0
2018-Jan-29 01:59N 01°10' E 103°36'0 0.0
2018-Jan-29 01:14N 01°10' E 103°36'0 0.0
2018-Jan-29 00:53N 01°10' E 103°36'0 0.1
2018-Jan-29 00:20N 01°10' E 103°36'0 0.2
2018-Jan-28 23:56N 01°10' E 103°36'0 0.0
2018-Jan-28 23:20N 01°10' E 103°36'0 0.0
2018-Jan-28 22:27N 01°10' E 103°36'0 0.1
2018-Jan-28 21:50N 01°10' E 103°36'0 0.2
2018-Jan-28 21:29N 01°10' E 103°36'0 0.1
2018-Jan-28 20:38N 01°10' E 103°36'0 0.0
2018-Jan-28 20:14N 01°10' E 103°36'0 0.0
2018-Jan-28 19:56N 01°10' E 103°36'0 0.1
2018-Jan-28 19:29N 01°10' E 103°36'0 0.1
2018-Jan-28 18:56N 01°10' E 103°36'0 0.1
2018-Jan-28 18:26N 01°10' E 103°36'0 0.1
2018-Jan-28 17:44N 01°10' E 103°36'0 0.0
2018-Jan-28 17:25N 01°10' E 103°36'1 0.1
2018-Jan-28 11:29N 01°09' E 103°36'1 0.8
2018-Jan-28 10:47N 01°10' E 103°36'1 1.3
2018-Jan-28 10:18N 01°10' E 103°36'3 8.8
2018-Jan-28 09:57N 01°10' E 103°39'711.9
2018-Jan-28 09:22N 01°10' E 103°46'514.2
2018-Jan-28 09:00N 01°12' E 103°51'714.1
2018-Jan-28 08:29N 01°15' E 103°58'  

Dump ship's entire track history